sensor_id;sensor_type;location;lat;lon;timestamp;temperature;humidity
9971;DHT22;5026;51.494;11.974;2022-10-22T00:06:47;13.00;99.90
9971;DHT22;5026;51.494;11.974;2022-10-22T00:09:14;13.10;99.90
9971;DHT22;5026;51.494;11.974;2022-10-22T00:11:43;13.10;99.90
9971;DHT22;5026;51.494;11.974;2022-10-22T00:14:11;13.00;99.90
9971;DHT22;5026;51.494;11.974;2022-10-22T00:16:37;13.00;99.90
9971;DHT22;5026;51.494;11.974;2022-10-22T00:19:04;13.00;99.90
9971;DHT22;5026;51.494;11.974;2022-10-22T00:21:31;13.00;99.90
9971;DHT22;5026;51.494;11.974;2022-10-22T00:23:58;13.00;99.90
9971;DHT22;5026;51.494;11.974;2022-10-22T00:26:25;13.10;99.90
9971;DHT22;5026;51.494;11.974;2022-10-22T00:28:53;13.10;99.90
9971;DHT22;5026;51.494;11.974;2022-10-22T00:31:20;13.10;99.90
9971;DHT22;5026;51.494;11.974;2022-10-22T00:33:47;13.10;99.90
9971;DHT22;5026;51.494;11.974;2022-10-22T00:36:14;13.10;99.90
9971;DHT22;5026;51.494;11.974;2022-10-22T00:43:55;13.20;99.90
9971;DHT22;5026;51.494;11.974;2022-10-22T00:48:50;13.10;99.90
9971;DHT22;5026;51.494;11.974;2022-10-22T00:51:18;13.10;99.90
9971;DHT22;5026;51.494;11.974;2022-10-22T00:53:48;13.10;99.90
9971;DHT22;5026;51.494;11.974;2022-10-22T00:58:47;13.00;99.90
9971;DHT22;5026;51.494;11.974;2022-10-22T01:01:20;13.00;99.90
9971;DHT22;5026;51.494;11.974;2022-10-22T01:03:48;13.00;99.90
9971;DHT22;5026;51.494;11.974;2022-10-22T01:06:18;13.10;99.90
9971;DHT22;5026;51.494;11.974;2022-10-22T01:08:51;13.10;99.90
9971;DHT22;5026;51.494;11.974;2022-10-22T01:11:22;13.10;99.90
9971;DHT22;5026;51.494;11.974;2022-10-22T01:13:56;13.20;99.90
9971;DHT22;5026;51.494;11.974;2022-10-22T01:16:32;13.00;99.90
9971;DHT22;5026;51.494;11.974;2022-10-22T01:21:54;13.00;99.90
9971;DHT22;5026;51.494;11.974;2022-10-22T01:24:39;13.00;99.90
9971;DHT22;5026;51.494;11.974;2022-10-22T01:27:27;13.00;99.90
9971;DHT22;5026;51.494;11.974;2022-10-22T01:29:58;12.90;99.90
9971;DHT22;5026;51.494;11.974;2022-10-22T01:32:28;12.90;99.90
9971;DHT22;5026;51.494;11.974;2022-10-22T01:35:00;12.90;99.90
9971;DHT22;5026;51.494;11.974;2022-10-22T01:37:29;12.90;99.90
9971;DHT22;5026;51.494;11.974;2022-10-22T01:39:59;13.00;99.90
9971;DHT22;5026;51.494;11.974;2022-10-22T01:42:27;13.10;99.90
9971;DHT22;5026;51.494;11.974;2022-10-22T01:44:53;13.10;99.90
9971;DHT22;5026;51.494;11.974;2022-10-22T01:47:30;12.10;99.90
9971;DHT22;5026;51.494;11.974;2022-10-22T01:50:31;13.10;99.90
9971;DHT22;5026;51.494;11.974;2022-10-22T01:53:13;13.20;99.90
9971;DHT22;5026;51.494;11.974;2022-10-22T01:55:56;13.10;99.90
9971;DHT22;5026;51.494;11.974;2022-10-22T01:58:35;13.20;99.90
9971;DHT22;5026;51.494;11.974;2022-10-22T02:01:08;13.20;99.90
9971;DHT22;5026;51.494;11.974;2022-10-22T02:03:45;13.20;99.90
9971;DHT22;5026;51.494;11.974;2022-10-22T02:06:16;13.20;99.90
9971;DHT22;5026;51.494;11.974;2022-10-22T02:08:45;13.20;99.90
9971;DHT22;5026;51.494;11.974;2022-10-22T02:11:13;13.20;99.90
9971;DHT22;5026;51.494;11.974;2022-10-22T02:13:43;13.20;99.90
9971;DHT22;5026;51.494;11.974;2022-10-22T02:16:14;13.10;99.90
9971;DHT22;5026;51.494;11.974;2022-10-22T02:18:45;13.10;99.90
9971;DHT22;5026;51.494;11.974;2022-10-22T02:21:13;13.00;99.90
9971;DHT22;5026;51.494;11.974;2022-10-22T02:23:40;13.10;99.90
9971;DHT22;5026;51.494;11.974;2022-10-22T02:26:13;13.00;99.90
9971;DHT22;5026;51.494;11.974;2022-10-22T02:28:45;13.00;99.90
9971;DHT22;5026;51.494;11.974;2022-10-22T02:31:19;13.00;99.90
9971;DHT22;5026;51.494;11.974;2022-10-22T02:33:53;12.90;99.90
9971;DHT22;5026;51.494;11.974;2022-10-22T02:36:21;12.90;99.90
9971;DHT22;5026;51.494;11.974;2022-10-22T02:38:50;12.90;99.90
9971;DHT22;5026;51.494;11.974;2022-10-22T02:41:17;12.90;99.90
9971;DHT22;5026;51.494;11.974;2022-10-22T02:43:50;12.90;99.90
9971;DHT22;5026;51.494;11.974;2022-10-22T02:48:46;12.80;99.90
9971;DHT22;5026;51.494;11.974;2022-10-22T02:51:14;12.80;99.90
9971;DHT22;5026;51.494;11.974;2022-10-22T02:56:08;12.80;99.90
9971;DHT22;5026;51.494;11.974;2022-10-22T02:58:35;12.80;99.90
9971;DHT22;5026;51.494;11.974;2022-10-22T03:01:02;12.90;99.90
9971;DHT22;5026;51.494;11.974;2022-10-22T03:08:24;12.90;99.90
9971;DHT22;5026;51.494;11.974;2022-10-22T03:10:51;13.00;99.90
9971;DHT22;5026;51.494;11.974;2022-10-22T03:15:47;13.00;99.90
9971;DHT22;5026;51.494;11.974;2022-10-22T03:18:14;12.90;99.90
9971;DHT22;5026;51.494;11.974;2022-10-22T03:20:42;13.00;99.90
9971;DHT22;5026;51.494;11.974;2022-10-22T03:23:09;13.00;99.90
9971;DHT22;5026;51.494;11.974;2022-10-22T03:25:40;13.00;99.90
9971;DHT22;5026;51.494;11.974;2022-10-22T03:28:09;13.00;99.90
9971;DHT22;5026;51.494;11.974;2022-10-22T03:30:36;12.90;99.90
9971;DHT22;5026;51.494;11.974;2022-10-22T03:33:03;12.90;99.90
9971;DHT22;5026;51.494;11.974;2022-10-22T03:35:30;13.00;99.90
9971;DHT22;5026;51.494;11.974;2022-10-22T03:37:59;13.00;99.90
9971;DHT22;5026;51.494;11.974;2022-10-22T03:40:26;13.00;99.90
9971;DHT22;5026;51.494;11.974;2022-10-22T03:42:54;13.00;99.90
9971;DHT22;5026;51.494;11.974;2022-10-22T03:45:21;13.00;99.90
9971;DHT22;5026;51.494;11.974;2022-10-22T03:50:15;13.00;99.90
9971;DHT22;5026;51.494;11.974;2022-10-22T03:55:10;13.10;99.90
9971;DHT22;5026;51.494;11.974;2022-10-22T03:57:37;13.00;99.90
9971;DHT22;5026;51.494;11.974;2022-10-22T04:00:07;13.10;99.90
9971;DHT22;5026;51.494;11.974;2022-10-22T04:02:34;13.10;99.90
9971;DHT22;5026;51.494;11.974;2022-10-22T04:07:28;13.20;99.90
9971;DHT22;5026;51.494;11.974;2022-10-22T04:09:55;13.20;99.90
9971;DHT22;5026;51.494;11.974;2022-10-22T04:12:22;13.20;99.90
9971;DHT22;5026;51.494;11.974;2022-10-22T04:14:48;13.30;99.90
9971;DHT22;5026;51.494;11.974;2022-10-22T04:17:17;13.20;99.90
9971;DHT22;5026;51.494;11.974;2022-10-22T04:19:43;13.20;99.90
9971;DHT22;5026;51.494;11.974;2022-10-22T04:22:10;13.30;99.90
9971;DHT22;5026;51.494;11.974;2022-10-22T04:24:37;13.30;99.90
9971;DHT22;5026;51.494;11.974;2022-10-22T04:31:58;13.30;99.90
9971;DHT22;5026;51.494;11.974;2022-10-22T04:34:27;13.20;99.90
9971;DHT22;5026;51.494;11.974;2022-10-22T04:36:54;13.30;99.90
9971;DHT22;5026;51.494;11.974;2022-10-22T04:39:21;13.20;99.90
9971;DHT22;5026;51.494;11.974;2022-10-22T04:41:48;13.20;99.90
9971;DHT22;5026;51.494;11.974;2022-10-22T04:44:15;13.20;99.90
9971;DHT22;5026;51.494;11.974;2022-10-22T04:46:42;13.10;99.90
9971;DHT22;5026;51.494;11.974;2022-10-22T04:49:09;13.20;99.90
9971;DHT22;5026;51.494;11.974;2022-10-22T04:51:37;13.20;99.90
9971;DHT22;5026;51.494;11.974;2022-10-22T04:54:04;13.20;99.90
9971;DHT22;5026;51.494;11.974;2022-10-22T04:56:31;13.20;99.90
9971;DHT22;5026;51.494;11.974;2022-10-22T04:59:00;13.20;99.90
9971;DHT22;5026;51.494;11.974;2022-10-22T05:01:29;13.20;99.90
9971;DHT22;5026;51.494;11.974;2022-10-22T05:03:58;13.20;99.90
9971;DHT22;5026;51.494;11.974;2022-10-22T05:06:26;13.20;99.90
9971;DHT22;5026;51.494;11.974;2022-10-22T05:08:57;13.20;99.90
9971;DHT22;5026;51.494;11.974;2022-10-22T05:11:26;13.10;99.90
9971;DHT22;5026;51.494;11.974;2022-10-22T05:13:54;13.10;99.90
9971;DHT22;5026;51.494;11.974;2022-10-22T05:18:48;13.10;99.90
9971;DHT22;5026;51.494;11.974;2022-10-22T05:21:17;13.10;99.90
9971;DHT22;5026;51.494;11.974;2022-10-22T05:23:45;13.00;99.90
9971;DHT22;5026;51.494;11.974;2022-10-22T05:26:16;13.00;99.90
9971;DHT22;5026;51.494;11.974;2022-10-22T05:28:43;13.00;99.90
9971;DHT22;5026;51.494;11.974;2022-10-22T05:31:11;13.00;99.90
9971;DHT22;5026;51.494;11.974;2022-10-22T05:33:39;13.10;99.90
9971;DHT22;5026;51.494;11.974;2022-10-22T05:36:08;13.10;99.90
9971;DHT22;5026;51.494;11.974;2022-10-22T05:38:36;13.00;99.90
9971;DHT22;5026;51.494;11.974;2022-10-22T05:41:05;13.00;99.90
9971;DHT22;5026;51.494;11.974;2022-10-22T05:43:33;13.00;99.90
9971;DHT22;5026;51.494;11.974;2022-10-22T05:46:01;13.00;99.90
9971;DHT22;5026;51.494;11.974;2022-10-22T05:50:56;13.00;99.90
9971;DHT22;5026;51.494;11.974;2022-10-22T05:55:58;13.00;99.90
9971;DHT22;5026;51.494;11.974;2022-10-22T05:58:25;13.00;99.90
9971;DHT22;5026;51.494;11.974;2022-10-22T06:00:53;13.00;99.90
9971;DHT22;5026;51.494;11.974;2022-10-22T06:03:20;13.00;99.90
9971;DHT22;5026;51.494;11.974;2022-10-22T06:08:14;13.10;99.90
9971;DHT22;5026;51.494;11.974;2022-10-22T06:10:41;13.10;99.90
9971;DHT22;5026;51.494;11.974;2022-10-22T06:13:09;13.10;99.90
9971;DHT22;5026;51.494;11.974;2022-10-22T06:15:36;13.10;99.90
9971;DHT22;5026;51.494;11.974;2022-10-22T06:18:04;13.20;99.90
9971;DHT22;5026;51.494;11.974;2022-10-22T06:20:33;13.20;99.90
9971;DHT22;5026;51.494;11.974;2022-10-22T06:25:27;13.30;99.90
9971;DHT22;5026;51.494;11.974;2022-10-22T06:32:47;13.40;99.90
9971;DHT22;5026;51.494;11.974;2022-10-22T06:35:16;13.50;99.90
9971;DHT22;5026;51.494;11.974;2022-10-22T06:37:43;13.50;99.90
9971;DHT22;5026;51.494;11.974;2022-10-22T06:40:12;13.60;99.90
9971;DHT22;5026;51.494;11.974;2022-10-22T06:45:07;13.70;99.90
9971;DHT22;5026;51.494;11.974;2022-10-22T06:47:34;13.80;99.90
9971;DHT22;5026;51.494;11.974;2022-10-22T06:50:01;13.80;99.90
9971;DHT22;5026;51.494;11.974;2022-10-22T06:52:29;13.90;99.90
9971;DHT22;5026;51.494;11.974;2022-10-22T06:59:50;14.10;99.90
9971;DHT22;5026;51.494;11.974;2022-10-22T07:04:44;14.10;99.90
9971;DHT22;5026;51.494;11.974;2022-10-22T07:07:11;14.20;99.90
9971;DHT22;5026;51.494;11.974;2022-10-22T07:09:40;14.20;99.90
9971;DHT22;5026;51.494;11.974;2022-10-22T07:12:10;14.30;99.90
9971;DHT22;5026;51.494;11.974;2022-10-22T07:14:37;14.40;99.90
9971;DHT22;5026;51.494;11.974;2022-10-22T07:17:04;14.40;99.90
9971;DHT22;5026;51.494;11.974;2022-10-22T07:19:31;14.50;99.90
9971;DHT22;5026;51.494;11.974;2022-10-22T07:21:57;14.60;99.90
9971;DHT22;5026;51.494;11.974;2022-10-22T07:24:24;14.60;99.90
9971;DHT22;5026;51.494;11.974;2022-10-22T07:26:52;14.70;99.90
9971;DHT22;5026;51.494;11.974;2022-10-22T07:29:19;14.70;99.90
9971;DHT22;5026;51.494;11.974;2022-10-22T07:34:13;14.90;99.90
9971;DHT22;5026;51.494;11.974;2022-10-22T07:36:40;14.90;99.90
9971;DHT22;5026;51.494;11.974;2022-10-22T07:39:07;14.90;99.90
9971;DHT22;5026;51.494;11.974;2022-10-22T07:41:34;14.90;99.90
9971;DHT22;5026;51.494;11.974;2022-10-22T07:44:02;15.00;99.90
9971;DHT22;5026;51.494;11.974;2022-10-22T07:46:29;15.00;99.90
9971;DHT22;5026;51.494;11.974;2022-10-22T07:48:56;14.90;99.90
9971;DHT22;5026;51.494;11.974;2022-10-22T07:51:23;15.00;99.90
9971;DHT22;5026;51.494;11.974;2022-10-22T07:53:50;15.00;99.90
9971;DHT22;5026;51.494;11.974;2022-10-22T07:56:17;14.90;99.90
9971;DHT22;5026;51.494;11.974;2022-10-22T07:58:44;15.00;99.90
9971;DHT22;5026;51.494;11.974;2022-10-22T08:01:12;15.00;99.90
9971;DHT22;5026;51.494;11.974;2022-10-22T08:03:39;15.10;99.90
9971;DHT22;5026;51.494;11.974;2022-10-22T08:06:06;15.10;99.90
9971;DHT22;5026;51.494;11.974;2022-10-22T08:08:33;15.20;99.90
9971;DHT22;5026;51.494;11.974;2022-10-22T08:11:00;15.20;99.90
9971;DHT22;5026;51.494;11.974;2022-10-22T08:13:27;15.20;99.90
9971;DHT22;5026;51.494;11.974;2022-10-22T08:15:56;15.40;99.90
9971;DHT22;5026;51.494;11.974;2022-10-22T08:18:24;15.90;99.90
9971;DHT22;5026;51.494;11.974;2022-10-22T08:20:51;15.60;99.90
9971;DHT22;5026;51.494;11.974;2022-10-22T08:23:19;16.20;99.90
9971;DHT22;5026;51.494;11.974;2022-10-22T08:25:46;15.90;99.90
9971;DHT22;5026;51.494;11.974;2022-10-22T08:28:12;16.00;99.90
9971;DHT22;5026;51.494;11.974;2022-10-22T08:30:39;17.10;99.90
9971;DHT22;5026;51.494;11.974;2022-10-22T08:33:09;16.40;99.90
9971;DHT22;5026;51.494;11.974;2022-10-22T08:35:37;16.50;99.90
9971;DHT22;5026;51.494;11.974;2022-10-22T08:38:04;16.60;99.90
9971;DHT22;5026;51.494;11.974;2022-10-22T08:40:33;16.80;99.90
9971;DHT22;5026;51.494;11.974;2022-10-22T08:43:28;18.70;99.90
9971;DHT22;5026;51.494;11.974;2022-10-22T08:46:06;16.80;99.90
9971;DHT22;5026;51.494;11.974;2022-10-22T08:48:42;16.70;99.90
9971;DHT22;5026;51.494;11.974;2022-10-22T08:51:16;16.70;99.90
9971;DHT22;5026;51.494;11.974;2022-10-22T08:53:56;16.60;99.90
9971;DHT22;5026;51.494;11.974;2022-10-22T08:56:28;16.50;99.90
9971;DHT22;5026;51.494;11.974;2022-10-22T08:58:58;16.40;99.90
9971;DHT22;5026;51.494;11.974;2022-10-22T09:01:34;16.50;99.90
9971;DHT22;5026;51.494;11.974;2022-10-22T09:04:07;16.40;99.90
9971;DHT22;5026;51.494;11.974;2022-10-22T09:06:39;16.50;99.90
9971;DHT22;5026;51.494;11.974;2022-10-22T09:09:11;16.40;99.90
9971;DHT22;5026;51.494;11.974;2022-10-22T09:11:45;16.40;99.90
9971;DHT22;5026;51.494;11.974;2022-10-22T09:14:13;17.90;99.90
9971;DHT22;5026;51.494;11.974;2022-10-22T09:17:04;17.90;99.90
9971;DHT22;5026;51.494;11.974;2022-10-22T09:19:39;16.70;99.90
9971;DHT22;5026;51.494;11.974;2022-10-22T09:22:25;18.40;99.90
9971;DHT22;5026;51.494;11.974;2022-10-22T09:24:58;17.10;99.90
9971;DHT22;5026;51.494;11.974;2022-10-22T09:27:27;18.70;99.90
9971;DHT22;5026;51.494;11.974;2022-10-22T09:29:54;18.40;99.90
9971;DHT22;5026;51.494;11.974;2022-10-22T09:32:22;18.70;99.90
9971;DHT22;5026;51.494;11.974;2022-10-22T09:34:49;18.80;99.90
9971;DHT22;5026;51.494;11.974;2022-10-22T09:37:19;18.90;99.90
9971;DHT22;5026;51.494;11.974;2022-10-22T09:39:51;19.00;99.90
9971;DHT22;5026;51.494;11.974;2022-10-22T09:42:20;19.10;99.90
9971;DHT22;5026;51.494;11.974;2022-10-22T09:44:51;19.10;99.90
9971;DHT22;5026;51.494;11.974;2022-10-22T09:47:29;19.90;99.90
9971;DHT22;5026;51.494;11.974;2022-10-22T09:50:06;19.30;99.90
9971;DHT22;5026;51.494;11.974;2022-10-22T09:52:38;19.30;99.90
9971;DHT22;5026;51.494;11.974;2022-10-22T09:55:12;19.30;99.90
9971;DHT22;5026;51.494;11.974;2022-10-22T09:57:39;19.20;99.90
9971;DHT22;5026;51.494;11.974;2022-10-22T10:00:08;18.80;99.90
9971;DHT22;5026;51.494;11.974;2022-10-22T10:02:39;18.70;99.90
9971;DHT22;5026;51.494;11.974;2022-10-22T10:05:18;18.50;99.90
9971;DHT22;5026;51.494;11.974;2022-10-22T10:07:47;18.20;99.90
9971;DHT22;5026;51.494;11.974;2022-10-22T10:10:18;18.70;99.90
9971;DHT22;5026;51.494;11.974;2022-10-22T10:12:51;17.80;99.90
9971;DHT22;5026;51.494;11.974;2022-10-22T10:15:25;19.30;99.90
9971;DHT22;5026;51.494;11.974;2022-10-22T10:17:57;19.50;99.90
9971;DHT22;5026;51.494;11.974;2022-10-22T10:20:33;17.70;99.90
9971;DHT22;5026;51.494;11.974;2022-10-22T10:23:10;17.70;99.90
9971;DHT22;5026;51.494;11.974;2022-10-22T10:25:49;18.70;99.90
9971;DHT22;5026;51.494;11.974;2022-10-22T10:28:26;19.00;99.90
9971;DHT22;5026;51.494;11.974;2022-10-22T10:31:04;20.00;99.90
9971;DHT22;5026;51.494;11.974;2022-10-22T10:33:43;18.70;99.90
9971;DHT22;5026;51.494;11.974;2022-10-22T10:36:17;18.10;99.90
9971;DHT22;5026;51.494;11.974;2022-10-22T10:38:55;19.80;99.90
9971;DHT22;5026;51.494;11.974;2022-10-22T10:41:32;18.10;99.90
9971;DHT22;5026;51.494;11.974;2022-10-22T10:44:16;18.00;99.90
9971;DHT22;5026;51.494;11.974;2022-10-22T10:46:54;18.60;99.90
9971;DHT22;5026;51.494;11.974;2022-10-22T10:49:26;18.20;99.90
9971;DHT22;5026;51.494;11.974;2022-10-22T10:52:02;18.10;99.90
9971;DHT22;5026;51.494;11.974;2022-10-22T10:54:42;19.90;99.90
9971;DHT22;5026;51.494;11.974;2022-10-22T10:57:18;18.20;99.90
9971;DHT22;5026;51.494;11.974;2022-10-22T10:59:57;19.50;99.90
9971;DHT22;5026;51.494;11.974;2022-10-22T11:02:55;18.30;99.90
9971;DHT22;5026;51.494;11.974;2022-10-22T11:05:35;18.20;99.90
9971;DHT22;5026;51.494;11.974;2022-10-22T11:08:07;18.30;99.90
9971;DHT22;5026;51.494;11.974;2022-10-22T11:10:41;18.30;99.90
9971;DHT22;5026;51.494;11.974;2022-10-22T11:13:16;18.30;99.90
9971;DHT22;5026;51.494;11.974;2022-10-22T11:15:47;19.00;99.90
9971;DHT22;5026;51.494;11.974;2022-10-22T11:18:21;18.90;99.90
9971;DHT22;5026;51.494;11.974;2022-10-22T11:20:59;18.90;99.90
9971;DHT22;5026;51.494;11.974;2022-10-22T11:23:31;18.90;99.90
9971;DHT22;5026;51.494;11.974;2022-10-22T11:26:00;19.00;99.90
9971;DHT22;5026;51.494;11.974;2022-10-22T11:28:32;19.00;99.90
9971;DHT22;5026;51.494;11.974;2022-10-22T11:31:02;19.70;99.90
9971;DHT22;5026;51.494;11.974;2022-10-22T11:33:35;19.00;99.90
9971;DHT22;5026;51.494;11.974;2022-10-22T11:36:05;19.10;99.90
9971;DHT22;5026;51.494;11.974;2022-10-22T11:38:33;19.10;99.90
9971;DHT22;5026;51.494;11.974;2022-10-22T11:41:05;19.20;99.90
9971;DHT22;5026;51.494;11.974;2022-10-22T11:43:55;19.10;99.90
9971;DHT22;5026;51.494;11.974;2022-10-22T11:46:34;19.20;99.90
9971;DHT22;5026;51.494;11.974;2022-10-22T11:49:17;19.10;99.90
9971;DHT22;5026;51.494;11.974;2022-10-22T11:51:45;19.40;99.90
9971;DHT22;5026;51.494;11.974;2022-10-22T11:54:28;19.30;99.90
9971;DHT22;5026;51.494;11.974;2022-10-22T11:57:16;19.40;99.90
9971;DHT22;5026;51.494;11.974;2022-10-22T11:59:48;19.50;99.90
9971;DHT22;5026;51.494;11.974;2022-10-22T12:02:38;19.60;99.90
9971;DHT22;5026;51.494;11.974;2022-10-22T12:08:28;19.60;99.90
9971;DHT22;5026;51.494;11.974;2022-10-22T12:11:03;19.70;99.90
9971;DHT22;5026;51.494;11.974;2022-10-22T12:13:33;19.60;99.90
9971;DHT22;5026;51.494;11.974;2022-10-22T12:16:17;19.30;99.90
9971;DHT22;5026;51.494;11.974;2022-10-22T12:18:44;19.30;99.90
9971;DHT22;5026;51.494;11.974;2022-10-22T12:21:12;19.30;99.90
9971;DHT22;5026;51.494;11.974;2022-10-22T12:23:40;19.30;99.90
9971;DHT22;5026;51.494;11.974;2022-10-22T12:26:21;20.20;99.90
9971;DHT22;5026;51.494;11.974;2022-10-22T12:28:49;19.30;99.90
9971;DHT22;5026;51.494;11.974;2022-10-22T12:31:17;19.30;99.90
9971;DHT22;5026;51.494;11.974;2022-10-22T12:33:43;19.30;99.90
9971;DHT22;5026;51.494;11.974;2022-10-22T12:36:15;19.30;99.90
9971;DHT22;5026;51.494;11.974;2022-10-22T12:38:45;19.40;99.90
9971;DHT22;5026;51.494;11.974;2022-10-22T12:41:13;19.60;99.90
9971;DHT22;5026;51.494;11.974;2022-10-22T12:43:39;19.90;99.90
9971;DHT22;5026;51.494;11.974;2022-10-22T12:46:10;19.70;99.90
9971;DHT22;5026;51.494;11.974;2022-10-22T12:48:40;19.70;99.90
9971;DHT22;5026;51.494;11.974;2022-10-22T12:51:12;19.60;99.90
9971;DHT22;5026;51.494;11.974;2022-10-22T12:53:45;19.60;99.90
9971;DHT22;5026;51.494;11.974;2022-10-22T12:56:13;19.60;99.90
9971;DHT22;5026;51.494;11.974;2022-10-22T12:58:46;20.40;99.90
9971;DHT22;5026;51.494;11.974;2022-10-22T13:01:16;19.70;99.90
9971;DHT22;5026;51.494;11.974;2022-10-22T13:03:45;19.70;99.90
9971;DHT22;5026;51.494;11.974;2022-10-22T13:06:22;19.60;99.90
9971;DHT22;5026;51.494;11.974;2022-10-22T13:09:01;19.50;99.80
9971;DHT22;5026;51.494;11.974;2022-10-22T13:11:30;19.60;99.80
9971;DHT22;5026;51.494;11.974;2022-10-22T13:14:02;19.60;99.70
9971;DHT22;5026;51.494;11.974;2022-10-22T13:16:31;19.60;99.80
9971;DHT22;5026;51.494;11.974;2022-10-22T13:21:33;19.90;99.80
9971;DHT22;5026;51.494;11.974;2022-10-22T13:24:01;19.90;99.70
9971;DHT22;5026;51.494;11.974;2022-10-22T13:26:33;19.80;99.60
9971;DHT22;5026;51.494;11.974;2022-10-22T13:29:02;19.60;99.60
9971;DHT22;5026;51.494;11.974;2022-10-22T13:31:43;19.50;99.60
9971;DHT22;5026;51.494;11.974;2022-10-22T13:34:14;19.30;99.70
9971;DHT22;5026;51.494;11.974;2022-10-22T13:36:42;19.10;99.80
9971;DHT22;5026;51.494;11.974;2022-10-22T13:39:12;18.90;99.90
9971;DHT22;5026;51.494;11.974;2022-10-22T13:41:42;18.70;99.90
9971;DHT22;5026;51.494;11.974;2022-10-22T13:44:09;18.60;99.90
9971;DHT22;5026;51.494;11.974;2022-10-22T13:46:38;18.60;99.90
9971;DHT22;5026;51.494;11.974;2022-10-22T13:49:11;18.50;99.90
9971;DHT22;5026;51.494;11.974;2022-10-22T13:51:39;17.40;99.90
9971;DHT22;5026;51.494;11.974;2022-10-22T13:54:12;18.80;99.90
9971;DHT22;5026;51.494;11.974;2022-10-22T13:59:07;19.20;99.90
9971;DHT22;5026;51.494;11.974;2022-10-22T14:01:35;19.20;99.90
9971;DHT22;5026;51.494;11.974;2022-10-22T14:04:06;19.20;99.90
9971;DHT22;5026;51.494;11.974;2022-10-22T14:09:03;19.30;99.90
9971;DHT22;5026;51.494;11.974;2022-10-22T14:11:30;19.40;99.90
9971;DHT22;5026;51.494;11.974;2022-10-22T14:16:26;19.20;99.90
9971;DHT22;5026;51.494;11.974;2022-10-22T14:18:54;18.90;99.90
9971;DHT22;5026;51.494;11.974;2022-10-22T14:21:23;18.70;99.90
9971;DHT22;5026;51.494;11.974;2022-10-22T14:23:50;18.50;99.90
9971;DHT22;5026;51.494;11.974;2022-10-22T14:26:21;18.30;99.90
9971;DHT22;5026;51.494;11.974;2022-10-22T14:28:49;18.20;99.90
9971;DHT22;5026;51.494;11.974;2022-10-22T14:31:16;18.10;99.90
9971;DHT22;5026;51.494;11.974;2022-10-22T14:36:12;18.00;99.90
9971;DHT22;5026;51.494;11.974;2022-10-22T14:38:40;18.00;99.90
9971;DHT22;5026;51.494;11.974;2022-10-22T14:41:15;18.00;99.90
9971;DHT22;5026;51.494;11.974;2022-10-22T14:46:11;17.80;99.90
9971;DHT22;5026;51.494;11.974;2022-10-22T14:51:05;17.60;99.90
9971;DHT22;5026;51.494;11.974;2022-10-22T14:56:01;17.50;99.90
9971;DHT22;5026;51.494;11.974;2022-10-22T15:03:23;17.50;99.90
9971;DHT22;5026;51.494;11.974;2022-10-22T15:05:51;17.60;99.90
9971;DHT22;5026;51.494;11.974;2022-10-22T15:08:20;17.50;99.90
9971;DHT22;5026;51.494;11.974;2022-10-22T15:10:57;17.50;99.90
9971;DHT22;5026;51.494;11.974;2022-10-22T15:13:25;17.40;99.90
9971;DHT22;5026;51.494;11.974;2022-10-22T15:20:54;17.30;99.90
9971;DHT22;5026;51.494;11.974;2022-10-22T15:25:48;17.20;99.90
9971;DHT22;5026;51.494;11.974;2022-10-22T15:28:14;17.10;99.90
9971;DHT22;5026;51.494;11.974;2022-10-22T15:30:43;17.00;99.90
9971;DHT22;5026;51.494;11.974;2022-10-22T15:40:34;16.90;99.90
9971;DHT22;5026;51.494;11.974;2022-10-22T15:43:01;16.80;99.90
9971;DHT22;5026;51.494;11.974;2022-10-22T15:47:56;16.60;99.90
9971;DHT22;5026;51.494;11.974;2022-10-22T15:52:50;16.40;99.90
9971;DHT22;5026;51.494;11.974;2022-10-22T15:55:18;16.40;99.90
9971;DHT22;5026;51.494;11.974;2022-10-22T16:00:19;16.20;99.90
9971;DHT22;5026;51.494;11.974;2022-10-22T16:05:15;16.10;99.90
9971;DHT22;5026;51.494;11.974;2022-10-22T16:15:07;15.70;99.90
9971;DHT22;5026;51.494;11.974;2022-10-22T16:17:34;15.70;99.90
9971;DHT22;5026;51.494;11.974;2022-10-22T16:22:29;15.70;99.90
9971;DHT22;5026;51.494;11.974;2022-10-22T16:24:56;15.60;99.90
9971;DHT22;5026;51.494;11.974;2022-10-22T16:27:23;15.60;99.90
9971;DHT22;5026;51.494;11.974;2022-10-22T16:32:17;15.40;99.90
9971;DHT22;5026;51.494;11.974;2022-10-22T16:39:39;15.50;99.90
9971;DHT22;5026;51.494;11.974;2022-10-22T16:42:06;15.40;99.90
9971;DHT22;5026;51.494;11.974;2022-10-22T16:44:33;15.40;99.90
9971;DHT22;5026;51.494;11.974;2022-10-22T16:49:27;15.30;99.90
9971;DHT22;5026;51.494;11.974;2022-10-22T16:56:49;15.00;99.90
9971;DHT22;5026;51.494;11.974;2022-10-22T16:59:16;15.10;99.90
9971;DHT22;5026;51.494;11.974;2022-10-22T17:01:43;15.00;99.90
9971;DHT22;5026;51.494;11.974;2022-10-22T17:06:37;15.00;99.90
9971;DHT22;5026;51.494;11.974;2022-10-22T17:11:31;15.00;99.90
9971;DHT22;5026;51.494;11.974;2022-10-22T17:14:01;15.00;99.90
9971;DHT22;5026;51.494;11.974;2022-10-22T17:16:28;15.00;99.90
9971;DHT22;5026;51.494;11.974;2022-10-22T17:18:55;15.00;99.90
9971;DHT22;5026;51.494;11.974;2022-10-22T17:21:24;14.90;99.90
9971;DHT22;5026;51.494;11.974;2022-10-22T17:23:54;14.90;99.90
9971;DHT22;5026;51.494;11.974;2022-10-22T17:26:22;18.00;99.90
9971;DHT22;5026;51.494;11.974;2022-10-22T17:28:51;14.80;99.90
9971;DHT22;5026;51.494;11.974;2022-10-22T17:31:21;14.70;99.90
9971;DHT22;5026;51.494;11.974;2022-10-22T17:33:50;14.70;99.90
9971;DHT22;5026;51.494;11.974;2022-10-22T17:36:18;14.70;99.90
9971;DHT22;5026;51.494;11.974;2022-10-22T17:38:47;14.70;99.90
9971;DHT22;5026;51.494;11.974;2022-10-22T17:41:17;14.70;99.90
9971;DHT22;5026;51.494;11.974;2022-10-22T17:43:45;14.70;99.90
9971;DHT22;5026;51.494;11.974;2022-10-22T17:46:15;14.70;99.90
9971;DHT22;5026;51.494;11.974;2022-10-22T17:48:44;14.70;99.90
9971;DHT22;5026;51.494;11.974;2022-10-22T17:53:41;14.70;99.90
9971;DHT22;5026;51.494;11.974;2022-10-22T17:56:12;13.10;99.90
9971;DHT22;5026;51.494;11.974;2022-10-22T18:01:15;14.80;99.90
9971;DHT22;5026;51.494;11.974;2022-10-22T18:03:43;14.80;99.90
9971;DHT22;5026;51.494;11.974;2022-10-22T18:06:10;14.80;99.90
9971;DHT22;5026;51.494;11.974;2022-10-22T18:11:05;14.80;99.90
9971;DHT22;5026;51.494;11.974;2022-10-22T18:13:33;14.90;99.90
9971;DHT22;5026;51.494;11.974;2022-10-22T18:18:27;14.90;99.90
9971;DHT22;5026;51.494;11.974;2022-10-22T18:20:55;14.90;99.90
9971;DHT22;5026;51.494;11.974;2022-10-22T18:23:22;14.80;99.90
9971;DHT22;5026;51.494;11.974;2022-10-22T18:25:49;14.80;99.90
9971;DHT22;5026;51.494;11.974;2022-10-22T18:28:17;14.80;99.90
9971;DHT22;5026;51.494;11.974;2022-10-22T18:30:46;14.80;99.90
9971;DHT22;5026;51.494;11.974;2022-10-22T18:33:15;14.80;99.90
9971;DHT22;5026;51.494;11.974;2022-10-22T18:38:11;14.70;99.90
9971;DHT22;5026;51.494;11.974;2022-10-22T18:40:43;14.60;99.90
9971;DHT22;5026;51.494;11.974;2022-10-22T18:43:11;14.60;99.90
9971;DHT22;5026;51.494;11.974;2022-10-22T18:45:40;14.40;99.90
9971;DHT22;5026;51.494;11.974;2022-10-22T18:50:34;14.30;99.90
9971;DHT22;5026;51.494;11.974;2022-10-22T18:53:01;14.20;99.90